sensor_id;sensor_type;location;lat;lon;timestamp;pressure;altitude;pressure_sealevel;temperature;humidity
22257;BME280;11297;42.686;23.374;2023-02-13T00:01:48;96727.81;;;4.96;61.71
22257;BME280;11297;42.686;23.374;2023-02-13T00:04:14;96731.41;;;4.95;61.75
22257;BME280;11297;42.686;23.374;2023-02-13T00:06:39;96728.16;;;5.00;61.76
22257;BME280;11297;42.686;23.374;2023-02-13T00:09:04;96726.34;;;5.00;61.67
22257;BME280;11297;42.686;23.374;2023-02-13T00:11:30;96732.16;;;4.96;61.41
22257;BME280;11297;42.686;23.374;2023-02-13T00:13:57;96734.19;;;4.94;61.67
22257;BME280;11297;42.686;23.374;2023-02-13T00:16:22;96733.41;;;4.93;61.76
22257;BME280;11297;42.686;23.374;2023-02-13T00:18:47;96732.75;;;4.98;61.71
22257;BME280;11297;42.686;23.374;2023-02-13T00:21:13;96731.06;;;4.92;61.70
22257;BME280;11297;42.686;23.374;2023-02-13T00:23:39;96739.44;;;4.87;61.83
22257;BME280;11297;42.686;23.374;2023-02-13T00:26:10;96737.88;;;4.86;62.18
22257;BME280;11297;42.686;23.374;2023-02-13T00:28:36;96734.75;;;4.84;61.94
22257;BME280;11297;42.686;23.374;2023-02-13T00:31:08;96736.06;;;4.87;62.05
22257;BME280;11297;42.686;23.374;2023-02-13T00:33:34;96737.09;;;4.86;62.17
22257;BME280;11297;42.686;23.374;2023-02-13T00:36:08;96735.53;;;4.85;62.49
22257;BME280;11297;42.686;23.374;2023-02-13T00:38:36;96742.91;;;4.81;62.08
22257;BME280;11297;42.686;23.374;2023-02-13T00:41:02;96730.38;;;4.85;62.15
22257;BME280;11297;42.686;23.374;2023-02-13T00:43:28;96734.63;;;4.91;61.77
22257;BME280;11297;42.686;23.374;2023-02-13T00:45:53;96747.72;;;4.89;61.85
22257;BME280;11297;42.686;23.374;2023-02-13T00:48:19;96740.91;;;4.95;61.93
22257;BME280;11297;42.686;23.374;2023-02-13T00:50:46;96734.97;;;4.94;61.38
22257;BME280;11297;42.686;23.374;2023-02-13T00:53:12;96746.28;;;5.05;61.72
22257;BME280;11297;42.686;23.374;2023-02-13T00:55:37;96747.19;;;5.10;61.37
22257;BME280;11297;42.686;23.374;2023-02-13T00:58:03;96750.44;;;5.17;60.86
22257;BME280;11297;42.686;23.374;2023-02-13T01:00:28;96748.66;;;5.18;60.97
22257;BME280;11297;42.686;23.374;2023-02-13T01:02:53;96752.00;;;5.18;60.99
22257;BME280;11297;42.686;23.374;2023-02-13T01:05:19;96752.00;;;5.18;60.89
22257;BME280;11297;42.686;23.374;2023-02-13T01:07:44;96755.94;;;5.21;60.94
22257;BME280;11297;42.686;23.374;2023-02-13T01:10:10;96755.03;;;5.15;60.76
22257;BME280;11297;42.686;23.374;2023-02-13T01:12:35;96750.22;;;5.07;60.29
22257;BME280;11297;42.686;23.374;2023-02-13T01:15:02;96754.00;;;4.93;60.43
22257;BME280;11297;42.686;23.374;2023-02-13T01:17:27;96742.25;;;4.86;59.75
22257;BME280;11297;42.686;23.374;2023-02-13T01:19:53;96748.34;;;4.73;59.63
22257;BME280;11297;42.686;23.374;2023-02-13T01:22:18;96753.94;;;4.71;59.53
22257;BME280;11297;42.686;23.374;2023-02-13T01:24:44;96761.31;;;4.67;59.48
22257;BME280;11297;42.686;23.374;2023-02-13T01:27:09;96758.41;;;4.64;60.16
22257;BME280;11297;42.686;23.374;2023-02-13T01:29:34;96760.06;;;4.58;59.59
22257;BME280;11297;42.686;23.374;2023-02-13T01:32:00;96764.50;;;4.51;59.59
22257;BME280;11297;42.686;23.374;2023-02-13T01:34:27;96762.72;;;4.52;59.24
22257;BME280;11297;42.686;23.374;2023-02-13T01:36:53;96764.16;;;4.48;59.34
22257;BME280;11297;42.686;23.374;2023-02-13T01:39:18;96765.81;;;4.42;59.49
22257;BME280;11297;42.686;23.374;2023-02-13T01:41:44;96758.63;;;4.33;59.71
22257;BME280;11297;42.686;23.374;2023-02-13T01:47:17;96771.84;;;4.19;60.48
22257;BME280;11297;42.686;23.374;2023-02-13T01:49:45;96768.72;;;4.17;60.77
22257;BME280;11297;42.686;23.374;2023-02-13T01:52:12;96777.59;;;4.21;60.84
22257;BME280;11297;42.686;23.374;2023-02-13T01:54:38;96772.00;;;4.24;60.44
22257;BME280;11297;42.686;23.374;2023-02-13T01:57:10;96767.84;;;4.23;60.60
22257;BME280;11297;42.686;23.374;2023-02-13T01:59:49;96768.41;;;4.25;60.17
22257;BME280;11297;42.686;23.374;2023-02-13T02:02:16;96777.59;;;4.21;60.61
22257;BME280;11297;42.686;23.374;2023-02-13T02:04:42;96764.63;;;4.27;60.79
22257;BME280;11297;42.686;23.374;2023-02-13T02:07:28;96772.63;;;4.37;61.19
22257;BME280;11297;42.686;23.374;2023-02-13T02:09:58;96764.59;;;4.45;60.87
22257;BME280;11297;42.686;23.374;2023-02-13T02:12:28;96762.50;;;4.53;60.54
22257;BME280;11297;42.686;23.374;2023-02-13T02:14:57;96761.66;;;4.59;60.10
22257;BME280;11297;42.686;23.374;2023-02-13T02:17:24;96756.63;;;4.64;59.81
22257;BME280;11297;42.686;23.374;2023-02-13T02:26:26;96758.13;;;4.83;60.01
22257;BME280;11297;42.686;23.374;2023-02-13T02:46:07;96778.84;;;4.88;60.65
22257;BME280;11297;42.686;23.374;2023-02-13T02:54:33;96783.94;;;4.76;60.45
22257;BME280;11297;42.686;23.374;2023-02-13T02:57:23;96801.09;;;4.53;59.00
22257;BME280;11297;42.686;23.374;2023-02-13T02:59:51;96804.78;;;4.28;58.15
22257;BME280;11297;42.686;23.374;2023-02-13T03:02:36;96805.00;;;4.09;58.42
22257;BME280;11297;42.686;23.374;2023-02-13T03:05:23;96795.84;;;3.95;58.83
22257;BME280;11297;42.686;23.374;2023-02-13T03:08:09;96796.91;;;3.70;58.92
22257;BME280;11297;42.686;23.374;2023-02-13T03:10:36;96796.00;;;3.64;59.09
22257;BME280;11297;42.686;23.374;2023-02-13T03:13:38;96794.63;;;3.62;59.02
22257;BME280;11297;42.686;23.374;2023-02-13T03:16:11;96788.03;;;3.48;59.33
22257;BME280;11297;42.686;23.374;2023-02-13T03:18:59;96793.19;;;3.48;58.99
22257;BME280;11297;42.686;23.374;2023-02-13T03:27:51;96802.03;;;3.52;59.73
22257;BME280;11297;42.686;23.374;2023-02-13T03:30:58;96804.78;;;3.50;60.10
22257;BME280;11297;42.686;23.374;2023-02-13T03:33:46;96813.44;;;3.56;60.05
22257;BME280;11297;42.686;23.374;2023-02-13T03:39:20;96797.97;;;3.62;60.22
22257;BME280;11297;42.686;23.374;2023-02-13T03:42:06;96779.53;;;3.47;60.34
22257;BME280;11297;42.686;23.374;2023-02-13T03:44:47;96787.34;;;3.59;59.71
22257;BME280;11297;42.686;23.374;2023-02-13T03:47:35;96807.03;;;3.65;59.67
22257;BME280;11297;42.686;23.374;2023-02-13T03:50:03;96800.84;;;3.72;59.91
22257;BME280;11297;42.686;23.374;2023-02-13T03:55:21;96798.19;;;3.78;59.95
22257;BME280;11297;42.686;23.374;2023-02-13T03:58:11;96809.28;;;3.79;60.05
22257;BME280;11297;42.686;23.374;2023-02-13T04:01:00;96803.34;;;3.78;60.22
22257;BME280;11297;42.686;23.374;2023-02-13T04:03:49;96798.84;;;3.74;59.99
22257;BME280;11297;42.686;23.374;2023-02-13T04:06:26;96792.56;;;3.70;60.28
22257;BME280;11297;42.686;23.374;2023-02-13T04:08:54;96802.31;;;3.62;60.27
22257;BME280;11297;42.686;23.374;2023-02-13T04:11:56;96790.84;;;3.64;60.43
22257;BME280;11297;42.686;23.374;2023-02-13T04:14:27;96794.41;;;3.63;60.87
22257;BME280;11297;42.686;23.374;2023-02-13T04:17:01;96795.16;;;3.70;60.84
22257;BME280;11297;42.686;23.374;2023-02-13T04:19:27;96803.00;;;3.75;60.78
22257;BME280;11297;42.686;23.374;2023-02-13T04:21:58;96802.56;;;3.78;60.68
22257;BME280;11297;42.686;23.374;2023-02-13T04:24:25;96811.06;;;3.78;60.21
22257;BME280;11297;42.686;23.374;2023-02-13T04:26:51;96818.75;;;3.78;60.04
22257;BME280;11297;42.686;23.374;2023-02-13T04:29:17;96813.41;;;3.80;60.19
22257;BME280;11297;42.686;23.374;2023-02-13T04:31:43;96817.56;;;3.81;60.64
22257;BME280;11297;42.686;23.374;2023-02-13T04:34:08;96811.00;;;3.85;60.33
22257;BME280;11297;42.686;23.374;2023-02-13T04:36:33;96800.28;;;3.88;60.42
22257;BME280;11297;42.686;23.374;2023-02-13T04:38:59;96797.44;;;3.78;60.19
22257;BME280;11297;42.686;23.374;2023-02-13T04:41:24;96806.19;;;3.71;60.34
22257;BME280;11297;42.686;23.374;2023-02-13T04:43:50;96799.69;;;3.86;67.12
22257;BME280;11297;42.686;23.374;2023-02-13T04:46:17;96802.50;;;3.84;63.44
22257;BME280;11297;42.686;23.374;2023-02-13T04:48:42;96805.88;;;3.85;61.84
22257;BME280;11297;42.686;23.374;2023-02-13T04:51:11;96808.47;;;3.78;61.37
22257;BME280;11297;42.686;23.374;2023-02-13T04:53:36;96807.19;;;3.70;61.38
22257;BME280;11297;42.686;23.374;2023-02-13T04:56:01;96818.22;;;3.52;61.69
22257;BME280;11297;42.686;23.374;2023-02-13T04:58:27;96825.59;;;3.67;65.54
22257;BME280;11297;42.686;23.374;2023-02-13T05:00:52;96815.34;;;3.42;65.47
22257;BME280;11297;42.686;23.374;2023-02-13T05:03:18;96815.00;;;3.39;63.77
22257;BME280;11297;42.686;23.374;2023-02-13T05:05:43;96819.38;;;3.32;62.83
22257;BME280;11297;42.686;23.374;2023-02-13T05:08:09;96831.59;;;3.36;62.86
22257;BME280;11297;42.686;23.374;2023-02-13T05:10:34;96829.16;;;3.41;62.67
22257;BME280;11297;42.686;23.374;2023-02-13T05:13:00;96831.75;;;3.41;62.04
22257;BME280;11297;42.686;23.374;2023-02-13T05:15:26;96827.97;;;3.44;62.17
22257;BME280;11297;42.686;23.374;2023-02-13T05:17:52;96825.13;;;3.52;62.23
22257;BME280;11297;42.686;23.374;2023-02-13T05:20:17;96840.34;;;3.53;62.03
22257;BME280;11297;42.686;23.374;2023-02-13T05:22:44;96843.63;;;3.60;61.82
22257;BME280;11297;42.686;23.374;2023-02-13T05:25:28;96847.03;;;3.96;69.85
22257;BME280;11297;42.686;23.374;2023-02-13T05:27:53;96838.34;;;3.97;64.43
22257;BME280;11297;42.686;23.374;2023-02-13T05:30:19;96839.50;;;4.01;62.18
22257;BME280;11297;42.686;23.374;2023-02-13T05:32:44;96844.78;;;4.06;61.21
22257;BME280;11297;42.686;23.374;2023-02-13T05:35:10;96846.56;;;4.06;60.72
22257;BME280;11297;42.686;23.374;2023-02-13T05:37:35;96845.34;;;4.08;60.35
22257;BME280;11297;42.686;23.374;2023-02-13T05:40:00;96839.97;;;4.10;60.00
22257;BME280;11297;42.686;23.374;2023-02-13T05:42:26;96837.91;;;4.00;60.45
22257;BME280;11297;42.686;23.374;2023-02-13T05:44:51;96847.00;;;4.03;60.33
22257;BME280;11297;42.686;23.374;2023-02-13T05:47:17;96847.00;;;4.03;59.73
22257;BME280;11297;42.686;23.374;2023-02-13T05:49:42;96849.91;;;4.06;59.96
22257;BME280;11297;42.686;23.374;2023-02-13T05:52:07;96849.13;;;4.06;59.94
22257;BME280;11297;42.686;23.374;2023-02-13T05:54:33;96862.41;;;4.03;59.89
22257;BME280;11297;42.686;23.374;2023-02-13T05:56:58;96862.03;;;3.99;60.26
22257;BME280;11297;42.686;23.374;2023-02-13T05:59:23;96853.69;;;4.04;60.29
22257;BME280;11297;42.686;23.374;2023-02-13T06:01:49;96864.34;;;4.07;60.29
22257;BME280;11297;42.686;23.374;2023-02-13T06:04:14;96853.25;;;4.07;59.95
22257;BME280;11297;42.686;23.374;2023-02-13T06:06:39;96859.00;;;4.09;60.01
22257;BME280;11297;42.686;23.374;2023-02-13T06:09:05;96860.75;;;4.08;60.40
22257;BME280;11297;42.686;23.374;2023-02-13T06:11:30;96860.63;;;4.03;60.40
22257;BME280;11297;42.686;23.374;2023-02-13T06:13:55;96871.19;;;3.95;60.84
22257;BME280;11297;42.686;23.374;2023-02-13T06:16:21;96866.81;;;3.96;61.08
22257;BME280;11297;42.686;23.374;2023-02-13T06:18:46;96882.34;;;4.07;61.06
22257;BME280;11297;42.686;23.374;2023-02-13T06:21:12;96878.19;;;4.06;60.76
22257;BME280;11297;42.686;23.374;2023-02-13T06:23:37;96874.84;;;4.06;60.81
22257;BME280;11297;42.686;23.374;2023-02-13T06:26:06;96877.41;;;4.06;61.25
22257;BME280;11297;42.686;23.374;2023-02-13T06:28:32;96880.06;;;4.17;61.68
22257;BME280;11297;42.686;23.374;2023-02-13T06:30:58;96875.19;;;4.09;61.44
22257;BME280;11297;42.686;23.374;2023-02-13T06:33:23;96886.34;;;4.21;60.69
22257;BME280;11297;42.686;23.374;2023-02-13T06:35:49;96876.56;;;4.29;60.62
22257;BME280;11297;42.686;23.374;2023-02-13T06:38:14;96878.50;;;4.34;60.87
22257;BME280;11297;42.686;23.374;2023-02-13T06:40:43;96881.56;;;4.42;60.92
22257;BME280;11297;42.686;23.374;2023-02-13T06:43:08;96884.63;;;4.51;60.79
22257;BME280;11297;42.686;23.374;2023-02-13T06:45:34;96889.00;;;4.50;60.49
22257;BME280;11297;42.686;23.374;2023-02-13T06:47:59;96896.28;;;4.53;60.54
22257;BME280;11297;42.686;23.374;2023-02-13T06:50:25;96889.84;;;4.62;60.87
22257;BME280;11297;42.686;23.374;2023-02-13T06:52:51;96888.78;;;4.70;60.36
22257;BME280;11297;42.686;23.374;2023-02-13T06:55:16;96877.69;;;4.69;60.33
22257;BME280;11297;42.686;23.374;2023-02-13T06:57:43;96881.41;;;4.73;60.04
22257;BME280;11297;42.686;23.374;2023-02-13T07:00:09;96885.25;;;4.82;60.09
22257;BME280;11297;42.686;23.374;2023-02-13T07:02:38;96887.28;;;4.91;59.61
22257;BME280;11297;42.686;23.374;2023-02-13T07:05:04;96875.13;;;4.98;59.44
22257;BME280;11297;42.686;23.374;2023-02-13T07:07:36;96867.28;;;5.34;65.85
22257;BME280;11297;42.686;23.374;2023-02-13T07:10:03;96873.66;;;5.31;62.96
22257;BME280;11297;42.686;23.374;2023-02-13T07:12:32;96873.00;;;5.36;59.79
22257;BME280;11297;42.686;23.374;2023-02-13T07:14:58;96877.06;;;5.55;59.24
22257;BME280;11297;42.686;23.374;2023-02-13T07:17:23;96875.75;;;5.75;58.13
22257;BME280;11297;42.686;23.374;2023-02-13T07:19:49;96883.03;;;5.78;57.45
22257;BME280;11297;42.686;23.374;2023-02-13T07:22:14;96885.06;;;5.76;56.99
22257;BME280;11297;42.686;23.374;2023-02-13T07:24:39;96883.91;;;5.72;56.45
22257;BME280;11297;42.686;23.374;2023-02-13T07:27:05;96885.81;;;5.65;56.71
22257;BME280;11297;42.686;23.374;2023-02-13T07:29:30;96875.94;;;5.51;56.88
22257;BME280;11297;42.686;23.374;2023-02-13T07:31:55;96885.00;;;5.13;58.01
22257;BME280;11297;42.686;23.374;2023-02-13T07:34:21;96889.50;;;5.17;59.04
22257;BME280;11297;42.686;23.374;2023-02-13T07:36:46;96883.88;;;5.49;67.84
22257;BME280;11297;42.686;23.374;2023-02-13T07:39:12;96897.66;;;5.43;60.73
22257;BME280;11297;42.686;23.374;2023-02-13T07:41:38;96886.34;;;5.44;59.39
22257;BME280;11297;42.686;23.374;2023-02-13T07:44:03;96886.66;;;5.36;58.57
22257;BME280;11297;42.686;23.374;2023-02-13T07:46:29;96891.06;;;5.47;58.73
22257;BME280;11297;42.686;23.374;2023-02-13T07:48:54;96883.69;;;5.62;58.36
22257;BME280;11297;42.686;23.374;2023-02-13T07:51:20;96884.53;;;5.74;58.51
22257;BME280;11297;42.686;23.374;2023-02-13T07:53:49;96889.34;;;5.82;57.77
22257;BME280;11297;42.686;23.374;2023-02-13T07:56:15;96873.75;;;5.77;57.08
22257;BME280;11297;42.686;23.374;2023-02-13T07:58:40;96888.00;;;5.91;56.47
22257;BME280;11297;42.686;23.374;2023-02-13T08:01:10;96892.81;;;6.10;56.07
22257;BME280;11297;42.686;23.374;2023-02-13T08:03:36;96877.69;;;6.02;55.88
22257;BME280;11297;42.686;23.374;2023-02-13T08:06:02;96885.28;;;5.97;56.10
22257;BME280;11297;42.686;23.374;2023-02-13T08:08:28;96885.66;;;5.89;56.04
22257;BME280;11297;42.686;23.374;2023-02-13T08:10:53;96881.00;;;5.68;57.01
22257;BME280;11297;42.686;23.374;2023-02-13T08:13:37;96884.13;;;5.70;57.25
22257;BME280;11297;42.686;23.374;2023-02-13T08:16:03;96877.34;;;5.76;56.82
22257;BME280;11297;42.686;23.374;2023-02-13T08:18:29;96866.66;;;5.61;56.84
22257;BME280;11297;42.686;23.374;2023-02-13T08:20:54;96874.53;;;5.77;57.22
22257;BME280;11297;42.686;23.374;2023-02-13T08:23:19;96882.50;;;5.76;56.77
22257;BME280;11297;42.686;23.374;2023-02-13T08:25:45;96872.41;;;5.86;56.58
22257;BME280;11297;42.686;23.374;2023-02-13T08:28:12;96880.94;;;5.86;56.12
22257;BME280;11297;42.686;23.374;2023-02-13T08:30:37;96878.91;;;5.88;56.43
22257;BME280;11297;42.686;23.374;2023-02-13T08:33:03;96889.69;;;5.97;56.28
22257;BME280;11297;42.686;23.374;2023-02-13T08:35:28;96880.16;;;5.86;56.46
22257;BME280;11297;42.686;23.374;2023-02-13T08:37:55;96883.31;;;5.99;56.48
22257;BME280;11297;42.686;23.374;2023-02-13T08:40:21;96885.41;;;5.79;56.90
22257;BME280;11297;42.686;23.374;2023-02-13T08:42:46;96884.06;;;5.88;57.01
22257;BME280;11297;42.686;23.374;2023-02-13T08:45:12;96880.47;;;5.89;57.04
22257;BME280;11297;42.686;23.374;2023-02-13T08:47:37;96884.41;;;5.92;56.85
22257;BME280;11297;42.686;23.374;2023-02-13T08:50:04;96885.75;;;5.94;56.76
22257;BME280;11297;42.686;23.374;2023-02-13T08:52:31;96886.63;;;5.88;57.06
22257;BME280;11297;42.686;23.374;2023-02-13T08:54:56;96874.66;;;5.94;56.93
22257;BME280;11297;42.686;23.374;2023-02-13T08:57:22;96872.63;;;5.96;56.41
22257;BME280;11297;42.686;23.374;2023-02-13T08:59:47;96877.91;;;6.01;56.67
22257;BME280;11297;42.686;23.374;2023-02-13T09:02:12;96858.50;;;5.87;55.93
22257;BME280;11297;42.686;23.374;2023-02-13T09:04:39;96885.28;;;5.97;56.50
22257;BME280;11297;42.686;23.374;2023-02-13T09:07:04;96886.44;;;6.13;56.08
22257;BME280;11297;42.686;23.374;2023-02-13T09:09:30;96879.13;;;6.21;55.73
22257;BME280;11297;42.686;23.374;2023-02-13T09:11:55;96882.38;;;6.17;55.62
22257;BME280;11297;42.686;23.374;2023-02-13T09:14:22;96878.91;;;6.22;55.83
22257;BME280;11297;42.686;23.374;2023-02-13T09:16:48;96888.00;;;6.25;55.94
22257;BME280;11297;42.686;23.374;2023-02-13T09:19:13;96877.00;;;6.18;55.73
22257;BME280;11297;42.686;23.374;2023-02-13T09:21:38;96873.19;;;6.32;55.63
22257;BME280;11297;42.686;23.374;2023-02-13T09:24:08;96880.66;;;6.45;55.50
22257;BME280;11297;42.686;23.374;2023-02-13T09:26:33;96882.47;;;6.44;54.96
22257;BME280;11297;42.686;23.374;2023-02-13T09:28:59;96872.91;;;6.45;55.46
22257;BME280;11297;42.686;23.374;2023-02-13T09:31:24;96867.88;;;6.50;55.29
22257;BME280;11297;42.686;23.374;2023-02-13T09:33:50;96866.22;;;6.44;55.43
22257;BME280;11297;42.686;23.374;2023-02-13T09:36:18;96855.56;;;6.29;55.39
22257;BME280;11297;42.686;23.374;2023-02-13T09:38:45;96862.84;;;6.32;55.50
22257;BME280;11297;42.686;23.374;2023-02-13T09:44:00;96853.25;;;6.55;55.47
22257;BME280;11297;42.686;23.374;2023-02-13T09:46:35;96846.38;;;6.72;54.70
22257;BME280;11297;42.686;23.374;2023-02-13T09:49:12;96842.59;;;6.63;55.34
22257;BME280;11297;42.686;23.374;2023-02-13T09:51:41;96830.28;;;6.81;54.54
22257;BME280;11297;42.686;23.374;2023-02-13T09:54:13;96828.22;;;6.83;54.35
22257;BME280;11297;42.686;23.374;2023-02-13T09:56:49;96841.06;;;6.78;54.60
22257;BME280;11297;42.686;23.374;2023-02-13T10:01:52;96825.00;;;7.04;53.85
22257;BME280;11297;42.686;23.374;2023-02-13T10:07:44;96820.94;;;7.08;53.81
22257;BME280;11297;42.686;23.374;2023-02-13T10:10:32;96824.78;;;7.22;53.17
22257;BME280;11297;42.686;23.374;2023-02-13T10:16:17;96816.91;;;7.28;52.94
22257;BME280;11297;42.686;23.374;2023-02-13T10:18:59;96806.69;;;7.71;52.48
22257;BME280;11297;42.686;23.374;2023-02-13T10:21:29;96802.72;;;8.17;51.45
22257;BME280;11297;42.686;23.374;2023-02-13T10:24:13;96795.63;;;8.29;51.05
22257;BME280;11297;42.686;23.374;2023-02-13T10:26:43;96788.44;;;8.36;50.31
22257;BME280;11297;42.686;23.374;2023-02-13T10:29:15;96788.56;;;8.46;49.86
22257;BME280;11297;42.686;23.374;2023-02-13T10:32:03;96779.91;;;9.09;48.71
22257;BME280;11297;42.686;23.374;2023-02-13T10:34:36;96778.75;;;9.99;52.16
22257;BME280;11297;42.686;23.374;2023-02-13T10:37:10;96764.66;;;10.46;46.51
22257;BME280;11297;42.686;23.374;2023-02-13T10:39:40;96773.47;;;10.35;45.29
22257;BME280;11297;42.686;23.374;2023-02-13T10:42:36;96767.09;;;10.77;44.99
22257;BME280;11297;42.686;23.374;2023-02-13T10:51:00;96751.34;;;12.36;40.77
22257;BME280;11297;42.686;23.374;2023-02-13T10:59:09;96738.56;;;11.56;41.46
22257;BME280;11297;42.686;23.374;2023-02-13T11:01:50;96739.81;;;11.44;41.48
22257;BME280;11297;42.686;23.374;2023-02-13T11:04:18;96725.00;;;11.64;41.54
22257;BME280;11297;42.686;23.374;2023-02-13T11:06:59;96733.03;;;11.83;41.07
22257;BME280;11297;42.686;23.374;2023-02-13T11:09:25;96719.78;;;11.69;41.44
22257;BME280;11297;42.686;23.374;2023-02-13T11:11:53;96716.13;;;11.75;40.87
22257;BME280;11297;42.686;23.374;2023-02-13T11:19:30;96711.50;;;11.13;41.80
22257;BME280;11297;42.686;23.374;2023-02-13T11:22:02;96704.47;;;11.23;42.03
22257;BME280;11297;42.686;23.374;2023-02-13T11:24:29;96687.56;;;11.26;41.40
22257;BME280;11297;42.686;23.374;2023-02-13T11:27:04;96700.31;;;11.37;41.58
22257;BME280;11297;42.686;23.374;2023-02-13T11:29:34;96686.25;;;11.33;41.46
22257;BME280;11297;42.686;23.374;2023-02-13T11:34:39;96671.50;;;12.06;40.17
22257;BME280;11297;42.686;23.374;2023-02-13T11:39:36;96665.53;;;12.01;40.20
22257;BME280;11297;42.686;23.374;2023-02-13T11:42:01;96662.97;;;11.91;40.34
22257;BME280;11297;42.686;23.374;2023-02-13T11:44:29;96658.25;;;11.93;39.88
22257;BME280;11297;42.686;23.374;2023-02-13T11:46:58;96648.38;;;11.95;40.08
22257;BME280;11297;42.686;23.374;2023-02-13T11:49:28;96641.84;;;12.02;39.74
22257;BME280;11297;42.686;23.374;2023-02-13T11:51:58;96638.38;;;12.12;39.88
22257;BME280;11297;42.686;23.374;2023-02-13T11:54:40;96633.75;;;12.04;39.54
22257;BME280;11297;42.686;23.374;2023-02-13T11:57:29;96623.63;;;11.93;38.73
22257;BME280;11297;42.686;23.374;2023-02-13T11:59:56;96626.31;;;11.78;39.73
22257;BME280;11297;42.686;23.374;2023-02-13T12:02:42;96618.28;;;11.64;39.77
22257;BME280;11297;42.686;23.374;2023-02-13T12:05:22;96594.69;;;11.26;40.09
22257;BME280;11297;42.686;23.374;2023-02-13T12:07:48;96622.19;;;11.62;42.54
22257;BME280;11297;42.686;23.374;2023-02-13T12:12:45;96608.19;;;11.48;39.27
22257;BME280;11297;42.686;23.374;2023-02-13T12:15:20;96608.19;;;11.38;39.63
22257;BME280;11297;42.686;23.374;2023-02-13T12:17:52;96612.41;;;11.09;39.10
22257;BME280;11297;42.686;23.374;2023-02-13T12:20:21;96615.03;;;10.99;39.37
22257;BME280;11297;42.686;23.374;2023-02-13T12:23:19;96594.22;;;10.99;39.08
22257;BME280;11297;42.686;23.374;2023-02-13T12:26:07;96602.03;;;11.04;38.73
22257;BME280;11297;42.686;23.374;2023-02-13T12:39:32;96590.34;;;10.48;39.31
22257;BME280;11297;42.686;23.374;2023-02-13T13:04:22;96562.88;;;9.51;39.09
22257;BME280;11297;42.686;23.374;2023-02-13T13:07:17;96559.50;;;9.46;39.63
22257;BME280;11297;42.686;23.374;2023-02-13T13:12:29;96554.63;;;9.64;39.26
22257;BME280;11297;42.686;23.374;2023-02-13T13:18:22;96553.59;;;9.60;39.79
22257;BME280;11297;42.686;23.374;2023-02-13T13:26:03;96533.94;;;9.84;39.28
22257;BME280;11297;42.686;23.374;2023-02-13T13:28:34;96531.84;;;9.81;39.02
22257;BME280;11297;42.686;23.374;2023-02-13T13:31:01;96538.06;;;9.85;39.62
22257;BME280;11297;42.686;23.374;2023-02-13T13:33:27;96537.56;;;9.88;39.61
22257;BME280;11297;42.686;23.374;2023-02-13T13:46:28;96523.56;;;9.94;39.59
22257;BME280;11297;42.686;23.374;2023-02-13T13:52:33;96529.00;;;9.87;40.44
22257;BME280;11297;42.686;23.374;2023-02-13T13:55:00;96524.56;;;9.83;40.54
22257;BME280;11297;42.686;23.374;2023-02-13T14:02:48;96527.41;;;9.71;40.36
22257;BME280;11297;42.686;23.374;2023-02-13T14:07:54;96518.53;;;9.57;40.58
22257;BME280;11297;42.686;23.374;2023-02-13T14:12:58;96519.63;;;9.71;41.50
22257;BME280;11297;42.686;23.374;2023-02-13T14:15:48;96524.56;;;10.96;71.55
22257;BME280;11297;42.686;23.374;2023-02-13T14:20:49;96515.81;;;13.58;79.22
22257;BME280;11297;42.686;23.374;2023-02-13T14:25:40;96506.94;;;15.22;64.14
22257;BME280;11297;42.686;23.374;2023-02-13T14:28:14;96499.34;;;15.96;60.38
22257;BME280;11297;42.686;23.374;2023-02-13T14:30:43;96498.63;;;16.17;51.04
22257;BME280;11297;42.686;23.374;2023-02-13T14:33:23;96492.06;;;16.72;57.96
22257;BME280;11297;42.686;23.374;2023-02-13T14:35:59;96480.09;;;16.57;44.54
22257;BME280;11297;42.686;23.374;2023-02-13T14:38:26;96494.50;;;16.68;51.14
22257;BME280;11297;42.686;23.374;2023-02-13T14:40:52;96485.75;;;16.73;42.80
22257;BME280;11297;42.686;23.374;2023-02-13T14:45:52;96478.94;;;16.72;33.26
22257;BME280;11297;42.686;23.374;2023-02-13T14:48:23;96486.59;;;15.81;32.12
22257;BME280;11297;42.686;23.374;2023-02-13T14:50:54;96495.75;;;14.90;33.20
22257;BME280;11297;42.686;23.374;2023-02-13T14:53:25;96483.09;;;14.02;34.07
22257;BME280;11297;42.686;23.374;2023-02-13T14:56:20;96490.72;;;12.97;35.59
22257;BME280;11297;42.686;23.374;2023-02-13T14:59:13;96482.19;;;12.30;36.92
22257;BME280;11297;42.686;23.374;2023-02-13T15:01:51;96471.31;;;11.52;37.22
22257;BME280;11297;42.686;23.374;2023-02-13T15:04:23;96498.19;;;11.28;38.37
22257;BME280;11297;42.686;23.374;2023-02-13T15:06:51;96494.72;;;10.79;39.36
22257;BME280;11297;42.686;23.374;2023-02-13T15:11:43;96489.06;;;10.08;40.46
22257;BME280;11297;42.686;23.374;2023-02-13T15:14:44;96485.66;;;9.78;41.20
22257;BME280;11297;42.686;23.374;2023-02-13T15:17:52;96483.03;;;9.68;42.51
22257;BME280;11297;42.686;23.374;2023-02-13T15:22:38;96489.63;;;9.14;42.57
22257;BME280;11297;42.686;23.374;2023-02-13T15:25:22;96499.97;;;9.09;44.28
22257;BME280;11297;42.686;23.374;2023-02-13T15:27:51;96496.31;;;9.01;43.34
22257;BME280;11297;42.686;23.374;2023-02-13T15:30:35;96501.19;;;8.97;43.32
22257;BME280;11297;42.686;23.374;2023-02-13T15:33:11;96489.22;;;8.86;43.41
22257;BME280;11297;42.686;23.374;2023-02-13T15:35:39;96494.16;;;8.88;44.12
22257;BME280;11297;42.686;23.374;2023-02-13T15:38:25;96507.13;;;8.88;44.12
22257;BME280;11297;42.686;23.374;2023-02-13T15:40:54;96501.94;;;8.88;43.00
22257;BME280;11297;42.686;23.374;2023-02-13T15:43:29;96499.03;;;8.79;42.85
22257;BME280;11297;42.686;23.374;2023-02-13T15:46:02;96498.44;;;8.62;43.62
22257;BME280;11297;42.686;23.374;2023-02-13T15:48:30;96508.25;;;8.60;43.48
22257;BME280;11297;42.686;23.374;2023-02-13T15:50:56;96493.06;;;8.38;44.31
22257;BME280;11297;42.686;23.374;2023-02-13T15:53:22;96514.94;;;8.52;43.93
22257;BME280;11297;42.686;23.374;2023-02-13T15:55:56;96510.78;;;8.51;43.94